createdAt,value
2019-04-22T00:02:22.556Z,9.07
2019-04-22T00:05:04.789Z,7.97
2019-04-22T00:07:56.351Z,9.23
2019-04-22T00:10:26.129Z,8.97
2019-04-22T00:13:02.805Z,9.30
2019-04-22T00:15:29.220Z,9.73
2019-04-22T00:18:16.191Z,9.30
2019-04-22T00:20:42.488Z,9.53
2019-04-22T00:23:11.458Z,9.00
2019-04-22T00:25:56.080Z,9.77
2019-04-22T00:28:21.599Z,9.93
2019-04-22T00:31:00.743Z,10.00
2019-04-22T00:33:31.271Z,9.90
2019-04-22T00:36:08.857Z,10.47
2019-04-22T00:38:48.962Z,11.17
2019-04-22T00:41:16.702Z,10.70
2019-04-22T00:43:48.120Z,11.30
2019-04-22T00:46:19.570Z,10.23
2019-04-22T00:49:33.100Z,11.07
2019-04-22T00:51:28.749Z,11.53
2019-04-22T00:53:57.804Z,11.43
2019-04-22T00:56:27.722Z,11.20
2019-04-22T00:58:59.055Z,11.70
2019-04-22T01:01:41.007Z,11.43
2019-04-22T01:06:42.752Z,12.03
2019-04-22T01:09:16.879Z,11.80
2019-04-22T01:12:07.632Z,11.70
2019-04-22T01:14:21.642Z,11.73
2019-04-22T01:16:56.507Z,12.37
2019-04-22T01:19:32.372Z,12.73
2019-04-22T01:21:58.394Z,13.00
2019-04-22T01:24:32.364Z,13.37
2019-04-22T01:27:03.662Z,13.40
2019-04-22T01:29:30.371Z,13.67
2019-04-22T01:31:51.405Z,13.20
2019-04-22T01:34:40.375Z,14.23
2019-04-22T01:37:19.745Z,14.50
2019-04-22T01:39:56.991Z,15.27
2019-04-22T01:42:35.753Z,15.67
2019-04-22T01:45:06.703Z,14.80
2019-04-22T01:47:36.754Z,16.30
2019-04-22T01:50:17.217Z,17.07
2019-04-22T01:52:47.355Z,15.77
2019-04-22T01:55:28.828Z,16.73
2019-04-22T01:57:50.024Z,16.40
2019-04-22T02:00:16.425Z,16.37
2019-04-22T02:02:59.180Z,18.03
2019-04-22T02:05:32.764Z,17.10
2019-04-22T02:08:06.743Z,18.00
2019-04-22T02:10:40.689Z,17.10
2019-04-22T02:13:09.922Z,18.97
2019-04-22T02:15:47.999Z,18.17
2019-04-22T02:18:22.996Z,19.23
2019-04-22T02:20:50.034Z,18.40
2019-04-22T02:26:10.852Z,18.60
2019-04-22T02:41:26.189Z,21.70
2019-04-22T02:46:44.974Z,21.63
2019-04-22T02:49:11.130Z,21.70
2019-04-22T02:51:32.642Z,20.67
2019-04-22T02:59:14.621Z,21.13
2019-04-22T03:01:47.864Z,22.80
2019-04-22T03:04:22.789Z,22.37
2019-04-22T03:12:14.370Z,20.97
2019-04-22T03:14:50.991Z,22.03
2019-04-22T03:19:56.687Z,21.53
2019-04-22T03:22:16.965Z,23.90
2019-04-22T03:25:06.133Z,23.53
2019-04-22T03:27:36.835Z,20.80
2019-04-22T03:42:56.313Z,23.07
2019-04-22T03:48:03.723Z,21.23
2019-04-22T03:50:38.996Z,22.60
2019-04-22T03:53:11.161Z,23.57
2019-04-22T03:55:41.319Z,22.40
2019-04-22T03:58:23.794Z,22.30
2019-04-22T04:03:11.751Z,21.73
2019-04-22T04:05:56.912Z,23.60
2019-04-22T04:08:26.361Z,23.10
2019-04-22T04:10:55.586Z,23.50
2019-04-22T04:15:57.642Z,21.90
2019-04-22T04:18:46.767Z,24.60
2019-04-22T04:21:22.690Z,24.63
2019-04-22T04:24:05.693Z,23.10
2019-04-22T04:26:17.745Z,24.53
2019-04-22T04:29:21.607Z,23.80
2019-04-22T04:33:54.239Z,23.60
2019-04-22T04:36:28.332Z,23.73
2019-04-22T04:39:01.030Z,25.03
2019-04-22T04:46:45.159Z,23.37
2019-04-22T04:56:46.578Z,24.50
2019-04-22T04:59:50.803Z,25.53
2019-04-22T05:01:52.692Z,25.10
2019-04-22T05:04:37.238Z,25.23
2019-04-22T05:12:12.365Z,25.10
2019-04-22T05:14:36.861Z,25.63
2019-04-22T05:17:12.815Z,24.40
2019-04-22T05:19:50.447Z,25.80
2019-04-22T05:22:14.899Z,25.10
2019-04-22T05:24:53.371Z,24.07
2019-04-22T05:27:32.961Z,27.00
2019-04-22T05:30:07.464Z,26.30
2019-04-22T05:32:25.713Z,27.17
2019-04-22T05:35:00.450Z,25.50
2019-04-22T05:37:34.159Z,26.07
2019-04-22T05:40:10.326Z,26.00
2019-04-22T05:42:32.169Z,26.23
2019-04-22T05:47:50.720Z,25.80
2019-04-22T05:52:54.185Z,27.37
2019-04-22T05:55:23.754Z,26.07
2019-04-22T06:01:01.918Z,25.97
2019-04-22T06:03:12.259Z,26.57
2019-04-22T06:05:41.758Z,26.00
2019-04-22T06:08:10.291Z,26.43
2019-04-22T06:10:58.104Z,24.73
2019-04-22T06:13:20.250Z,24.47
2019-04-22T06:15:54.378Z,25.90
2019-04-22T06:18:27.458Z,23.90
2019-04-22T06:21:09.083Z,23.60
2019-04-22T06:23:40.280Z,24.97
2019-04-22T06:26:26.834Z,24.03
2019-04-22T06:28:50.096Z,24.07
2019-04-22T06:31:23.021Z,23.47
2019-04-22T06:33:48.720Z,23.53
2019-04-22T06:36:26.278Z,23.97
2019-04-22T06:38:56.652Z,23.67
2019-04-22T06:41:28.389Z,22.20
2019-04-22T06:44:09.371Z,21.80
2019-04-22T06:46:36.742Z,21.70
2019-04-22T06:49:12.862Z,21.37
2019-04-22T06:51:38.906Z,21.23
2019-04-22T06:54:17.959Z,20.90
2019-04-22T06:56:49.155Z,19.20
2019-04-22T06:59:24.750Z,19.43
2019-04-22T07:02:02.617Z,19.70
2019-04-22T07:04:30.201Z,19.47
2019-04-22T07:07:05.205Z,19.93
2019-04-22T07:12:13.074Z,18.43
2019-04-22T07:14:47.478Z,18.53
2019-04-22T07:17:15.004Z,18.73
2019-04-22T07:19:45.334Z,18.67
2019-04-22T07:24:53.906Z,17.80
2019-04-22T07:27:20.643Z,16.57
2019-04-22T07:30:03.571Z,16.57
2019-04-22T07:32:53.604Z,16.63
2019-04-22T07:35:08.469Z,17.23
2019-04-22T07:40:09.947Z,16.90
2019-04-22T07:42:46.015Z,17.23
2019-04-22T07:45:17.882Z,16.03
2019-04-22T07:47:56.132Z,15.73
2019-04-22T07:50:39.290Z,16.33
2019-04-22T07:52:51.421Z,15.20
2019-04-22T07:55:29.471Z,15.70
2019-04-22T07:58:10.670Z,16.17
2019-04-22T08:00:39.008Z,16.03
2019-04-22T08:03:14.569Z,15.23
2019-04-22T08:05:51.579Z,14.57
2019-04-22T08:08:21.568Z,15.10
2019-04-22T08:13:25.342Z,14.83
2019-04-22T08:15:58.052Z,15.13
2019-04-22T08:21:07.558Z,14.07
2019-04-22T08:26:11.391Z,14.07
2019-04-22T08:28:50.855Z,13.40
2019-04-22T08:31:24.910Z,14.28
2019-04-22T08:34:08.200Z,12.80
2019-04-22T08:36:25.632Z,12.93
2019-04-22T08:39:14.067Z,12.60
2019-04-22T08:44:18.702Z,12.67
2019-04-22T08:46:40.396Z,12.80
2019-04-22T08:49:09.871Z,11.70
2019-04-22T08:51:43.106Z,11.97
2019-04-22T08:54:18.297Z,12.13
2019-04-22T08:57:00.153Z,12.03
2019-04-22T08:59:30.864Z,11.63
2019-04-22T09:02:06.582Z,12.00
2019-04-22T09:04:39.201Z,11.47
2019-04-22T09:09:44.546Z,10.83
2019-04-22T09:15:01.141Z,11.00
2019-04-22T09:17:28.344Z,11.50
2019-04-22T09:19:55.931Z,11.20
2019-04-22T09:22:28.044Z,11.50
2019-04-22T09:24:58.959Z,10.97
2019-04-22T09:27:38.540Z,10.60
2019-04-22T09:30:06.297Z,10.53
2019-04-22T09:35:10.185Z,10.40
2019-04-22T09:37:50.020Z,10.47
2019-04-22T09:40:21.743Z,9.60
2019-04-22T09:42:50.554Z,8.90
2019-04-22T09:45:21.162Z,9.03
2019-04-22T09:48:00.858Z,8.77
2019-04-22T09:50:40.470Z,8.70
2019-04-22T09:53:08.332Z,9.13
2019-04-22T09:55:45.098Z,9.50
2019-04-22T09:58:16.583Z,9.53
2019-04-22T10:01:24.738Z,8.23
2019-04-22T10:03:56.261Z,8.87
2019-04-22T10:09:12.681Z,9.10
2019-04-22T10:11:33.956Z,8.73
2019-04-22T10:16:39.440Z,8.90
2019-04-22T10:21:46.327Z,9.30
2019-04-22T10:24:13.720Z,8.63
2019-04-22T10:26:44.093Z,9.33
2019-04-22T10:29:19.596Z,9.00
2019-04-22T10:34:14.029Z,8.57
2019-04-22T10:36:35.413Z,8.13
2019-04-22T10:39:08.564Z,8.33
2019-04-22T10:41:41.259Z,7.93
2019-04-22T10:44:13.115Z,8.20
2019-04-22T10:46:46.266Z,8.40
2019-04-22T10:49:18.201Z,7.97
2019-04-22T10:51:50.764Z,8.13
2019-04-22T10:54:23.355Z,8.20
2019-04-22T10:56:55.128Z,7.70
2019-04-22T10:59:26.922Z,8.50
2019-04-22T11:02:01.451Z,8.33
2019-04-22T11:04:34.280Z,7.90
2019-04-22T11:07:10.728Z,8.30
2019-04-22T11:09:52.017Z,8.47
2019-04-22T11:12:19.238Z,7.67
2019-04-22T11:14:47.725Z,6.78
2019-04-22T11:17:19.588Z,6.85
2019-04-22T11:19:51.282Z,6.83
2019-04-22T11:22:27.682Z,7.10
2019-04-22T11:24:57.970Z,7.00
2019-04-22T11:27:28.675Z,6.15
2019-04-22T11:30:01.854Z,6.80
2019-04-22T11:32:34.304Z,6.70
2019-04-22T11:35:07.827Z,6.93
2019-04-22T11:37:40.692Z,6.50
2019-04-22T11:40:22.280Z,6.80
2019-04-22T11:42:48.215Z,6.53
2019-04-22T11:45:19.522Z,6.37
2019-04-22T11:47:51.095Z,6.15
2019-04-22T11:50:25.982Z,6.22
2019-04-22T11:52:58.586Z,6.10
2019-04-22T11:55:32.908Z,6.12
2019-04-22T11:58:06.738Z,6.45
2019-04-22T12:00:39.070Z,6.45
2019-04-22T12:03:12.504Z,5.80
2019-04-22T12:05:45.980Z,5.47
2019-04-22T12:08:17.749Z,5.42
2019-04-22T12:10:54.593Z,5.70
2019-04-22T12:13:23.762Z,5.62
2019-04-22T12:15:55.682Z,6.03
2019-04-22T12:18:29.009Z,5.20
2019-04-22T12:21:01.303Z,6.33
2019-04-22T12:23:32.778Z,5.85
2019-04-22T12:26:09.281Z,5.67
2019-04-22T12:28:37.103Z,5.72
2019-04-22T12:31:09.419Z,5.60
2019-04-22T12:33:41.491Z,5.50
2019-04-22T12:36:14.749Z,5.60
2019-04-22T12:38:47.630Z,5.15
2019-04-22T12:41:19.834Z,5.40
2019-04-22T12:43:51.641Z,5.50
2019-04-22T12:46:24.043Z,5.45
2019-04-22T12:48:56.310Z,5.35
2019-04-22T12:51:29.138Z,6.53
2019-04-22T12:54:01.367Z,5.37
2019-04-22T12:56:33.514Z,5.17
2019-04-22T12:59:07.644Z,5.70
2019-04-22T13:01:39.561Z,5.95
2019-04-22T13:04:15.316Z,5.47
2019-04-22T13:06:45.932Z,5.67
2019-04-22T13:09:19.500Z,5.45
2019-04-22T13:11:52.852Z,5.33
2019-04-22T13:14:25.142Z,6.33
2019-04-22T13:16:57.747Z,5.62
2019-04-22T13:19:30.261Z,5.20
2019-04-22T13:22:03.104Z,5.25
2019-04-22T13:24:36.178Z,5.80
2019-04-22T13:27:08.865Z,6.03
2019-04-22T13:29:41.235Z,5.40
2019-04-22T13:32:13.168Z,5.58
2019-04-22T13:34:47.998Z,5.42
2019-04-22T13:37:19.131Z,5.08
2019-04-22T13:39:50.563Z,5.53
2019-04-22T13:42:23.442Z,5.95
2019-04-22T13:44:55.925Z,4.95
2019-04-22T13:53:15.158Z,5.12
2019-04-22T13:54:00.251Z,5.70
2019-04-22T13:54:17.150Z,5.17
2019-04-22T13:55:43.649Z,5.28
2019-04-22T13:57:58.265Z,5.00
2019-04-22T14:00:24.871Z,5.20
2019-04-22T14:03:29.046Z,4.92
2019-04-22T14:06:02.620Z,4.97
2019-04-22T14:08:35.272Z,5.08
2019-04-22T14:11:16.930Z,4.87
2019-04-22T14:13:41.723Z,5.10
2019-04-22T14:16:15.142Z,4.65
2019-04-22T14:18:49.676Z,4.35
2019-04-22T14:21:23.017Z,4.55
2019-04-22T14:23:54.394Z,4.87
2019-04-22T14:26:27.325Z,4.75
2019-04-22T14:28:59.986Z,4.47
2019-04-22T14:31:34.094Z,5.03
2019-04-22T14:34:08.202Z,4.80
2019-04-22T14:36:41.298Z,5.20
2019-04-22T14:39:12.918Z,5.47
2019-04-22T14:42:02.688Z,5.00
2019-04-22T14:47:15.792Z,5.17
2019-04-22T14:49:47.419Z,4.58
2019-04-22T14:52:21.555Z,4.72
2019-04-22T14:54:45.889Z,4.40
2019-04-22T14:57:07.211Z,5.15
2019-04-22T14:59:39.934Z,4.60
2019-04-22T15:02:11.790Z,4.83
2019-04-22T15:04:43.617Z,4.37
2019-04-22T15:07:16.842Z,4.80
2019-04-22T15:09:48.258Z,4.22
2019-04-22T15:12:30.186Z,4.50
2019-04-22T15:14:53.516Z,4.85
2019-04-22T15:17:38.748Z,4.47
2019-04-22T15:20:27.730Z,4.20
2019-04-22T15:22:59.539Z,4.12
2019-04-22T15:25:32.629Z,4.60
2019-04-22T15:28:03.792Z,4.33
2019-04-22T15:30:37.304Z,3.85
2019-04-22T15:33:09.725Z,3.50
2019-04-22T15:35:41.189Z,4.70
2019-04-22T15:38:13.276Z,4.58
2019-04-22T15:40:45.262Z,3.83
2019-04-22T15:43:17.306Z,4.30
2019-04-22T15:45:48.847Z,3.90
2019-04-22T15:48:21.204Z,4.00
2019-04-22T15:50:53.045Z,4.20
2019-04-22T15:53:25.421Z,4.00
2019-04-22T15:55:56.676Z,3.65
2019-04-22T15:58:29.969Z,4.30
2019-04-22T16:01:10.751Z,4.50
2019-04-22T16:03:34.508Z,3.55
2019-04-22T16:06:08.106Z,3.65
2019-04-22T16:08:41.044Z,3.85
2019-04-22T16:11:13.808Z,3.90
2019-04-22T16:13:46.579Z,3.92
2019-04-22T16:16:18.684Z,3.67
2019-04-22T16:18:50.755Z,3.45
2019-04-22T16:21:32.681Z,3.72
2019-04-22T16:24:18.216Z,3.20
2019-04-22T16:26:58.288Z,3.70
2019-04-22T16:29:29.586Z,3.30
2019-04-22T16:32:03.039Z,3.60
2019-04-22T16:34:35.934Z,2.90
2019-04-22T16:37:07.640Z,3.53
2019-04-22T16:39:41.939Z,2.95
2019-04-22T16:42:26.936Z,3.03
2019-04-22T16:44:47.497Z,2.85
2019-04-22T16:47:19.784Z,3.45
2019-04-22T16:49:51.913Z,3.05
2019-04-22T16:52:23.805Z,2.93
2019-04-22T16:54:58.947Z,3.93
2019-04-22T16:57:30.514Z,2.90
2019-04-22T17:00:02.917Z,2.97
2019-04-22T17:02:50.085Z,2.70
2019-04-22T17:05:49.867Z,2.95
2019-04-22T17:08:22.330Z,3.17
2019-04-22T17:10:53.739Z,2.67
2019-04-22T17:13:28.771Z,2.77
2019-04-22T17:16:00.506Z,3.07
2019-04-22T17:18:31.032Z,2.90
2019-04-22T17:21:06.627Z,3.60
2019-04-22T17:23:38.224Z,2.70
2019-04-22T17:26:12.568Z,2.50
2019-04-22T17:28:45.848Z,2.33
2019-04-22T17:31:18.473Z,2.43
2019-04-22T17:33:50.809Z,2.80
2019-04-22T17:36:22.375Z,2.80
2019-04-22T17:39:07.042Z,2.60
2019-04-22T17:41:48.499Z,2.60
2019-04-22T17:44:41.382Z,2.67
2019-04-22T17:47:16.790Z,2.60
2019-04-22T17:50:05.181Z,2.57
2019-04-22T17:52:32.785Z,2.80
2019-04-22T17:54:58.991Z,3.10
2019-04-22T17:57:34.448Z,2.80
2019-04-22T18:00:06.471Z,3.23
2019-04-22T18:02:42.435Z,3.57
2019-04-22T18:05:01.144Z,3.43
2019-04-22T18:07:57.654Z,3.20
2019-04-22T18:13:01.748Z,2.77
2019-04-22T18:15:26.934Z,3.17
2019-04-22T18:18:08.707Z,3.07
2019-04-22T18:20:30.013Z,3.20
2019-04-22T18:22:56.964Z,3.10
2019-04-22T18:25:36.446Z,2.87
2019-04-22T18:28:21.424Z,3.43
2019-04-22T18:30:40.152Z,3.27
2019-04-22T18:33:20.718Z,4.00
2019-04-22T18:35:49.151Z,3.80
2019-04-22T18:38:33.162Z,3.67
2019-04-22T18:41:03.533Z,3.33
2019-04-22T18:43:32.941Z,3.23
2019-04-22T18:46:09.498Z,3.90
2019-04-22T18:48:42.545Z,3.57
2019-04-22T18:51:24.928Z,3.53
2019-04-22T18:54:14.717Z,3.20
2019-04-22T18:56:52.490Z,3.40
2019-04-22T18:59:13.554Z,3.67
2019-04-22T19:01:38.161Z,3.40
2019-04-22T19:04:17.162Z,4.57
2019-04-22T19:07:00.373Z,3.67
2019-04-22T19:09:41.417Z,3.33
2019-04-22T19:12:23.023Z,3.60
2019-04-22T19:17:30.042Z,3.43
2019-04-22T19:19:59.587Z,3.23
2019-04-22T19:22:25.328Z,3.60
2019-04-22T19:24:56.026Z,3.50
2019-04-22T19:27:30.994Z,3.33
2019-04-22T19:30:04.515Z,3.57
2019-04-22T19:32:42.026Z,3.77
2019-04-22T19:35:03.745Z,3.07
2019-04-22T19:37:37.413Z,3.67
2019-04-22T19:40:20.581Z,3.93
2019-04-22T19:42:53.490Z,3.37
2019-04-22T19:45:17.607Z,4.07
2019-04-22T19:48:03.637Z,3.37
2019-04-22T19:50:27.751Z,3.20
2019-04-22T19:53:01.263Z,3.27
2019-04-22T19:55:39.253Z,3.60
2019-04-22T19:58:07.193Z,3.50
2019-04-22T20:00:52.019Z,3.67
2019-04-22T20:03:50.874Z,3.27
2019-04-22T20:06:35.308Z,4.10
2019-04-22T20:09:07.332Z,3.07
2019-04-22T20:11:41.876Z,3.20
2019-04-22T20:14:12.547Z,3.03
2019-04-22T20:16:37.444Z,3.33
2019-04-22T20:19:24.953Z,3.10
2019-04-22T20:21:51.826Z,3.23
2019-04-22T20:24:12.047Z,3.17
2019-04-22T20:27:15.230Z,3.60
2019-04-22T20:29:37.674Z,2.90
2019-04-22T20:32:05.384Z,3.10
2019-04-22T20:34:39.041Z,2.67
2019-04-22T20:37:16.595Z,3.00
2019-04-22T20:40:00.463Z,2.97
2019-04-22T20:42:29.760Z,3.07
2019-04-22T20:44:51.685Z,2.60
2019-04-22T20:47:19.193Z,2.70
2019-04-22T20:49:58.756Z,2.80
2019-04-22T20:52:34.173Z,2.50
2019-04-22T20:54:58.913Z,2.90
2019-04-22T20:57:36.308Z,3.03
2019-04-22T21:00:05.389Z,2.80
2019-04-22T21:02:32.310Z,2.70
2019-04-22T21:05:03.209Z,2.80
2019-04-22T21:07:48.007Z,2.40
2019-04-22T21:10:18.416Z,2.50
2019-04-22T21:12:55.811Z,2.70
2019-04-22T21:15:40.821Z,2.27
2019-04-22T21:18:01.160Z,2.60
2019-04-22T21:20:39.248Z,2.23
2019-04-22T21:23:17.827Z,2.50
2019-04-22T21:25:43.034Z,2.60
2019-04-22T21:28:31.232Z,2.80
2019-04-22T21:30:57.124Z,2.37
2019-04-22T21:33:24.844Z,2.90
2019-04-22T21:36:19.009Z,2.30
2019-04-22T21:38:37.592Z,2.50
2019-04-22T21:41:09.861Z,2.70
2019-04-22T21:43:48.125Z,2.47
2019-04-22T21:46:16.526Z,2.23
2019-04-22T21:48:52.814Z,2.37
2019-04-22T21:51:31.670Z,2.50
2019-04-22T21:54:06.904Z,2.30
2019-04-22T21:56:40.774Z,2.27
2019-04-22T21:59:11.100Z,2.40
2019-04-22T22:04:17.392Z,2.07
2019-04-22T22:06:40.971Z,2.20
2019-04-22T22:09:25.402Z,2.37
2019-04-22T22:11:55.467Z,1.90
2019-04-22T22:14:27.622Z,2.00
2019-04-22T22:16:53.370Z,2.37
2019-04-22T22:19:38.012Z,2.10
2019-04-22T22:22:25.452Z,2.07
2019-04-22T22:24:46.718Z,2.47
2019-04-22T22:27:14.259Z,2.10
2019-04-22T22:30:05.556Z,1.70
2019-04-22T22:32:26.020Z,2.00
2019-04-22T22:34:58.750Z,2.10
2019-04-22T22:37:17.077Z,2.00
2019-04-22T22:39:52.832Z,2.00
2019-04-22T22:42:22.546Z,2.00
2019-04-22T22:44:52.642Z,2.20
2019-04-22T22:47:38.362Z,1.97
2019-04-22T22:50:12.556Z,2.33
2019-04-22T22:53:02.380Z,1.93
2019-04-22T22:55:20.008Z,2.40
2019-04-22T22:57:50.224Z,2.13
2019-04-22T23:00:22.321Z,1.80
2019-04-22T23:03:25.981Z,2.20
2019-04-22T23:05:37.668Z,2.13
2019-04-22T23:08:09.569Z,2.23
2019-04-22T23:10:54.247Z,2.10
2019-04-22T23:13:20.455Z,2.13
2019-04-22T23:15:38.730Z,2.00
2019-04-22T23:17:58.130Z,2.03
2019-04-22T23:20:34.448Z,2.17
2019-04-22T23:23:20.143Z,2.30
2019-04-22T23:26:02.576Z,2.03
2019-04-22T23:28:43.556Z,2.33
2019-04-22T23:31:31.684Z,1.90
2019-04-22T23:34:10.654Z,2.00
2019-04-22T23:36:57.519Z,2.13
2019-04-22T23:39:41.987Z,2.33
2019-04-22T23:42:15.969Z,2.27
2019-04-22T23:44:46.937Z,2.40
2019-04-22T23:47:35.149Z,2.23
2019-04-22T23:50:14.756Z,2.40
2019-04-22T23:52:53.051Z,2.10
2019-04-22T23:55:29.514Z,2.10
2019-04-22T23:58:02.980Z,2.30
